Time;durP1;ratioP1;P1;durP2;ratioP2;P2;SDS_P1;SDS_P2;PMS_P1;PMS_P2;Temp;Humidity;BMP_temperature;BMP_pressure;BME280_temperature;BME280_humidity;BME280_pressure;Samples;Min_cycle;Max_cycle;Signal;HPM_P1;HPM_P2
2023/06/06 00:02:10;;;;;;;10.88;6.88;;;7.60;99.90;;;;;;5069628;28;20043;-56
2023/06/06 00:04:36;;;;;;;14.77;7.57;;;8.80;99.90;;;;;;5068730;28;20044;-56
2023/06/06 00:07:04;;;;;;;10.38;6.50;;;10.00;99.90;;;;;;5069176;28;20048;-57
2023/06/06 00:09:31;;;;;;;14.57;8.30;;;8.60;99.90;;;;;;5068257;28;20299;-55
2023/06/06 00:11:57;;;;;;;11.25;6.68;;;8.50;99.90;;;;;;5068766;28;20048;-56
2023/06/06 00:14:24;;;;;;;13.60;7.57;;;8.50;99.90;;;;;;5070496;28;20466;-55
2023/06/06 00:16:51;;;;;;;12.07;7.53;;;8.60;99.90;;;;;;5069608;28;20253;-54
2023/06/06 00:19:20;;;;;;;10.73;6.88;;;8.50;99.90;;;;;;5068129;28;20051;-55
2023/06/06 00:21:46;;;;;;;11.27;6.47;;;8.40;99.90;;;;;;5069610;28;20049;-56
2023/06/06 00:24:12;;;;;;;12.60;7.57;;;8.40;99.90;;;;;;5072175;28;20105;-54
2023/06/06 00:26:38;;;;;;;11.18;6.25;;;8.40;99.90;;;;;;5071585;28;20471;-55
2023/06/06 00:29:04;;;;;;;11.75;6.75;;;8.30;99.90;;;;;;5073411;28;20172;-55
2023/06/06 00:31:30;;;;;;;13.88;7.68;;;8.30;99.90;;;;;;5072726;28;20101;-57
2023/06/06 00:33:56;;;;;;;12.35;7.18;;;8.00;99.90;;;;;;5073459;28;20048;-55
2023/06/06 00:36:21;;;;;;;13.18;7.00;;;9.70;99.90;;;;;;5072256;28;20523;-56
2023/06/06 00:38:47;;;;;;;16.77;8.52;;;8.20;99.90;;;;;;5072087;28;20044;-56
2023/06/06 00:41:14;;;;;;;14.13;8.43;;;8.30;99.90;;;;;;5072182;28;20060;-56
2023/06/06 00:43:40;;;;;;;13.18;8.85;;;8.50;99.90;;;;;;5073204;28;20087;-54
2023/06/06 00:46:06;;;;;;;20.50;7.78;;;8.70;99.90;;;;;;5071012;28;20162;-57
2023/06/06 00:48:32;;;;;;;16.90;8.38;;;8.50;99.90;;;;;;5086613;28;20083;-55
2023/06/06 00:50:59;;;;;;;15.90;8.65;;;8.40;99.90;;;;;;5094603;28;20040;-56
2023/06/06 00:53:25;;;;;;;14.65;8.48;;;8.40;99.90;;;;;;5093045;28;20392;-55
2023/06/06 00:55:52;;;;;;;15.98;8.40;;;8.40;99.90;;;;;;5094093;28;20040;-55
2023/06/06 00:58:18;;;;;;;13.73;8.27;;;8.40;99.90;;;;;;5092575;28;20040;-56
2023/06/06 01:00:46;;;;;;;10.23;7.32;;;10.10;99.90;;;;;;5074131;28;20067;-56
2023/06/06 01:03:14;;;;;;;11.80;7.18;;;8.40;99.90;;;;;;5092918;28;20052;-55
2023/06/06 01:05:40;;;;;;;11.10;6.93;;;8.50;99.90;;;;;;5094767;28;20156;-56
2023/06/06 01:08:07;;;;;;;10.07;6.57;;;8.30;99.90;;;;;;5092506;28;20088;-56
2023/06/06 01:10:36;;;;;;;11.50;6.80;;;8.90;99.90;;;;;;5092989;28;20142;-56
2023/06/06 01:13:35;;;;;;;12.45;6.65;;;8.10;99.90;;;;;;5093241;28;20660;-56
2023/06/06 01:16:07;;;;;;;15.32;8.18;;;8.20;99.90;;;;;;5092483;28;20086;-57
2023/06/06 01:18:33;;;;;;;14.63;8.38;;;8.00;99.90;;;;;;5091865;28;20076;-55
2023/06/06 01:21:00;;;;;;;14.32;8.43;;;8.10;99.90;;;;;;5093510;28;20317;-56
2023/06/06 01:23:27;;;;;;;14.02;8.18;;;8.30;99.90;;;;;;5068801;28;20688;-56
2023/06/06 01:25:54;;;;;;;15.63;7.93;;;8.40;99.90;;;;;;5091815;28;20447;-55
2023/06/06 01:28:20;;;;;;;12.02;7.68;;;8.20;99.90;;;;;;5092905;28;20076;-56
2023/06/06 01:30:46;;;;;;;12.27;7.72;;;8.30;99.90;;;;;;5094705;28;20043;-55
2023/06/06 01:33:25;;;;;;;16.15;8.13;;;8.70;99.90;;;;;;5091074;28;20042;-55
2023/06/06 01:36:30;;;;;;;14.30;8.15;;;8.40;99.90;;;;;;5072908;28;20496;-55
2023/06/06 01:39:15;;;;;;;14.63;8.18;;;8.60;99.90;;;;;;5079718;28;20416;-54
2023/06/06 01:41:42;;;;;;;13.38;8.27;;;8.50;99.90;;;;;;5092683;28;20051;-56
2023/06/06 01:44:11;;;;;;;18.75;9.57;;;8.30;99.90;;;;;;5091579;28;20060;-56
2023/06/06 01:46:37;;;;;;;16.55;8.38;;;8.40;99.90;;;;;;5092598;28;20047;-56
2023/06/06 01:49:04;;;;;;;15.13;8.20;;;8.40;99.90;;;;;;5092090;28;20063;-55
2023/06/06 01:51:30;;;;;;;16.77;8.82;;;8.20;99.90;;;;;;5090295;28;20480;-56
2023/06/06 01:53:57;;;;;;;19.30;9.55;;;8.40;99.90;;;;;;5072730;28;20536;-56
2023/06/06 01:56:25;;;;;;;17.58;8.18;;;8.30;99.90;;;;;;5091995;28;20642;-56
2023/06/06 01:58:52;;;;;;;15.63;8.27;;;8.50;99.90;;;;;;5093531;28;20126;-55
2023/06/06 02:01:18;;;;;;;16.20;8.68;;;8.40;99.90;;;;;;5092121;28;20050;-56
2023/06/06 02:03:44;;;;;;;19.58;9.00;;;9.50;99.90;;;;;;5092279;28;20135;-56
2023/06/06 02:06:10;;;;;;;16.85;8.68;;;8.30;99.90;;;;;;5093374;28;20120;-56
2023/06/06 02:08:35;;;;;;;13.15;8.77;;;8.40;99.90;;;;;;5092391;28;20044;-56
2023/06/06 02:11:01;;;;;;;18.20;8.90;;;8.50;99.90;;;;;;5091848;28;20041;-54
2023/06/06 02:13:28;;;;;;;19.35;10.13;;;8.40;99.90;;;;;;5092281;28;20047;-56
2023/06/06 02:15:53;;;;;;;16.25;8.88;;;8.40;99.90;;;;;;5092275;28;20043;-56
2023/06/06 02:18:19;;;;;;;19.23;9.35;;;8.70;99.90;;;;;;5073940;28;20040;-55
2023/06/06 02:20:45;;;;;;;18.70;9.10;;;8.50;99.90;;;;;;5090664;28;20083;-54
2023/06/06 02:23:11;;;;;;;14.23;8.90;;;8.70;99.90;;;;;;5075074;28;20515;-55
2023/06/06 02:25:39;;;;;;;25.17;10.18;;;8.60;99.90;;;;;;5089485;28;20047;-56
2023/06/06 02:28:07;;;;;;;20.90;9.23;;;8.80;99.90;;;;;;5091045;28;20128;-55
2023/06/06 02:30:32;;;;;;;15.85;8.98;;;8.90;99.90;;;;;;5089360;28;20048;-55
2023/06/06 02:32:58;;;;;;;16.48;9.13;;;8.80;99.90;;;;;;5091161;28;20123;-53
2023/06/06 02:35:24;;;;;;;15.85;8.95;;;8.60;99.90;;;;;;5089637;28;20054;-54
2023/06/06 02:37:50;;;;;;;22.45;10.05;;;8.60;99.90;;;;;;5090314;28;20039;-55
2023/06/06 02:40:17;;;;;;;19.23;8.40;;;8.70;99.90;;;;;;5090429;28;20062;-55
2023/06/06 02:42:42;;;;;;;19.02;9.68;;;8.50;99.90;;;;;;5091985;28;20040;-52
2023/06/06 02:45:10;;;;;;;15.73;10.00;;;8.60;99.90;;;;;;5091020;28;20050;-54
2023/06/06 02:47:36;;;;;;;13.73;9.30;;;8.80;99.90;;;;;;5089461;28;20048;-54
2023/06/06 02:50:03;;;;;;;20.45;9.35;;;8.70;99.90;;;;;;5090770;28;20310;-56
2023/06/06 02:52:31;;;;;;;20.35;10.80;;;8.70;99.90;;;;;;5091234;28;20445;-55
2023/06/06 02:54:58;;;;;;;18.98;9.63;;;8.90;99.90;;;;;;5089650;28;20043;-54
2023/06/06 02:57:23;;;;;;;20.67;10.45;;;8.50;99.90;;;;;;5090174;28;20047;-53
2023/06/06 02:59:50;;;;;;;19.27;9.93;;;8.80;99.90;;;;;;5092072;28;20040;-55
2023/06/06 03:02:16;;;;;;;16.33;9.73;;;8.80;99.90;;;;;;5091053;28;20516;-56
2023/06/06 03:04:46;;;;;;;17.92;9.98;;;8.90;99.90;;;;;;5089668;28;20138;-55
2023/06/06 03:07:12;;;;;;;17.27;9.68;;;8.90;99.90;;;;;;5089838;28;20038;-55
2023/06/06 03:09:38;;;;;;;16.98;9.23;;;8.90;99.90;;;;;;5089869;28;20572;-55
2023/06/06 03:12:04;;;;;;;18.27;9.05;;;9.00;99.90;;;;;;5090091;28;20047;-56
2023/06/06 03:14:30;;;;;;;16.42;9.15;;;9.20;99.90;;;;;;5090208;28;20385;-56
2023/06/06 03:16:56;;;;;;;19.88;8.98;;;9.10;99.90;;;;;;5090453;28;20254;-56
2023/06/06 03:19:23;;;;;;;17.20;9.38;;;8.80;99.90;;;;;;5088069;28;20052;-55
2023/06/06 03:21:49;;;;;;;16.35;9.18;;;8.90;99.90;;;;;;5091685;28;20054;-54
2023/06/06 03:24:15;;;;;;;18.05;10.15;;;10.20;99.90;;;;;;5089951;28;20047;-56
2023/06/06 03:26:44;;;;;;;20.08;9.43;;;9.00;99.90;;;;;;5089447;28;20426;-55
2023/06/06 03:29:10;;;;;;;14.50;9.15;;;8.90;99.90;;;;;;5090600;28;20508;-55
2023/06/06 03:31:37;;;;;;;14.70;9.63;;;9.20;99.90;;;;;;5091526;28;20530;-55
2023/06/06 03:34:03;;;;;;;18.75;8.48;;;9.10;99.90;;;;;;5092170;28;20080;-56
2023/06/06 03:36:38;;;;;;;16.80;9.20;;;9.30;99.90;;;;;;5089243;28;20035;-56
2023/06/06 03:39:04;;;;;;;16.55;9.55;;;9.10;99.90;;;;;;5091988;28;20090;-54
2023/06/06 03:41:32;;;;;;;17.13;9.80;;;9.10;99.90;;;;;;5091464;28;20489;-55
2023/06/06 03:44:01;;;;;;;20.23;9.23;;;9.10;99.90;;;;;;5071537;28;20043;-56
2023/06/06 03:46:27;;;;;;;18.92;9.35;;;9.30;99.90;;;;;;5091390;28;20044;-55
2023/06/06 03:48:52;;;;;;;20.35;9.73;;;9.30;99.90;;;;;;5090967;28;20036;-56
2023/06/06 03:51:18;;;;;;;15.90;8.98;;;9.30;99.90;;;;;;5089295;28;20160;-56
2023/06/06 03:53:44;;;;;;;14.23;9.13;;;9.40;99.90;;;;;;5089131;28;20035;-55
2023/06/06 03:56:10;;;;;;;17.70;8.80;;;9.30;99.90;;;;;;5091010;28;20054;-56
2023/06/06 03:58:36;;;;;;;18.67;9.32;;;9.30;99.90;;;;;;5073490;28;21184;-56
2023/06/06 04:01:03;;;;;;;16.02;9.63;;;9.70;99.90;;;;;;5094646;28;20040;-56
2023/06/06 04:03:36;;;;;;;15.02;8.35;;;9.30;99.90;;;;;;5093152;28;20431;-56
2023/06/06 04:06:06;;;;;;;18.50;9.27;;;9.40;99.90;;;;;;5092578;28;20040;-55
2023/06/06 04:08:38;;;;;;;18.65;8.55;;;9.70;99.90;;;;;;5092923;28;20163;-56
2023/06/06 04:11:03;;;;;;;15.68;8.93;;;9.60;99.90;;;;;;5091693;28;20602;-54
2023/06/06 04:13:29;;;;;;;13.65;8.85;;;9.60;99.90;;;;;;5094025;28;20047;-55
2023/06/06 04:15:55;;;;;;;17.60;9.13;;;9.70;99.90;;;;;;5093813;28;20038;-55
2023/06/06 04:18:21;;;;;;;17.75;8.32;;;9.80;99.90;;;;;;5091761;28;20337;-55
2023/06/06 04:20:46;;;;;;;11.20;7.68;;;9.80;99.90;;;;;;5093768;28;20047;-56
2023/06/06 04:23:12;;;;;;;16.15;8.25;;;10.00;99.90;;;;;;5092277;28;20564;-55
2023/06/06 04:25:38;;;;;;;15.13;8.55;;;10.10;99.90;;;;;;5092773;28;20035;-56
2023/06/06 04:28:05;;;;;;;14.82;8.63;;;10.00;99.90;;;;;;5093689;28;20070;-55
2023/06/06 04:30:32;;;;;;;14.48;8.32;;;10.10;99.90;;;;;;5094190;28;20233;-54
2023/06/06 04:32:58;;;;;;;12.52;7.75;;;10.20;99.90;;;;;;5092544;28;20306;-55
2023/06/06 04:35:24;;;;;;;12.77;7.93;;;10.30;99.90;;;;;;5092051;28;20040;-56
2023/06/06 04:37:54;;;;;;;14.43;7.57;;;11.10;99.90;;;;;;5092817;28;20504;-55
2023/06/06 04:40:21;;;;;;;16.63;8.35;;;10.50;99.90;;;;;;5091525;28;20126;-54
2023/06/06 04:42:47;;;;;;;15.35;7.75;;;10.60;99.90;;;;;;5073656;28;20039;-55
2023/06/06 04:45:15;;;;;;;20.95;8.48;;;10.60;99.90;;;;;;5091846;28;20109;-55
2023/06/06 04:47:44;;;;;;;16.15;7.65;;;10.70;99.90;;;;;;5090713;28;20125;-55
2023/06/06 04:50:10;;;;;;;13.90;8.30;;;10.80;99.90;;;;;;5092625;28;20524;-56
2023/06/06 04:52:36;;;;;;;17.42;7.47;;;10.70;99.90;;;;;;5074512;28;20388;-56
2023/06/06 04:55:03;;;;;;;14.23;7.88;;;11.00;99.90;;;;;;5092023;28;20056;-56
2023/06/06 04:57:29;;;;;;;14.80;7.38;;;10.90;99.90;;;;;;5094335;28;20110;-56
2023/06/06 04:59:56;;;;;;;14.82;8.07;;;11.00;99.90;;;;;;5093340;28;20563;-55
2023/06/06 05:02:28;;;;;;;19.95;7.13;;;11.10;99.90;;;;;;5073864;28;20040;-56
2023/06/06 05:04:55;;;;;;;16.33;7.63;;;11.00;99.90;;;;;;5091777;28;20134;-56
2023/06/06 05:07:25;;;;;;;15.60;7.38;;;11.10;99.90;;;;;;5092223;28;20051;-57
2023/06/06 05:09:54;;;;;;;14.07;7.65;;;11.30;99.90;;;;;;5093718;28;20081;-57
2023/06/06 05:12:21;;;;;;;14.30;7.43;;;11.40;99.90;;;;;;5092266;28;20047;-56
2023/06/06 05:14:48;;;;;;;17.65;6.65;;;11.50;99.90;;;;;;5092278;28;20047;-57
2023/06/06 05:17:17;;;;;;;13.20;7.22;;;11.50;99.90;;;;;;5091610;28;20307;-57
2023/06/06 05:19:44;;;;;;;17.05;6.95;;;11.70;99.90;;;;;;5091387;28;20454;-57
2023/06/06 05:22:10;;;;;;;14.23;7.25;;;11.70;99.90;;;;;;5091842;28;20425;-56
2023/06/06 05:24:35;;;;;;;16.85;7.65;;;11.70;99.90;;;;;;5091111;28;20069;-57
2023/06/06 05:27:01;;;;;;;13.55;6.68;;;11.80;99.90;;;;;;5091848;28;20042;-58
2023/06/06 05:29:27;;;;;;;14.55;7.50;;;11.90;99.90;;;;;;5092129;28;20627;-56
2023/06/06 05:31:52;;;;;;;14.82;8.07;;;12.10;99.90;;;;;;5074638;28;20046;-56
2023/06/06 05:34:18;;;;;;;17.33;6.97;;;12.20;99.90;;;;;;5091169;28;20127;-57
2023/06/06 05:36:44;;;;;;;14.73;6.85;;;12.20;99.90;;;;;;5092583;28;20405;-57
2023/06/06 05:39:10;;;;;;;13.43;7.00;;;12.10;99.90;;;;;;5091623;28;20134;-56
2023/06/06 05:41:36;;;;;;;17.50;7.20;;;12.20;99.90;;;;;;5090709;28;20039;-57
2023/06/06 05:44:02;;;;;;;12.90;6.95;;;12.30;99.90;;;;;;5090762;28;20047;-57
2023/06/06 05:46:28;;;;;;;18.67;7.45;;;12.40;99.90;;;;;;5091006;28;20028;-56
2023/06/06 05:48:54;;;;;;;15.05;6.80;;;12.60;99.90;;;;;;5091015;28;20262;-57
2023/06/06 05:51:20;;;;;;;12.73;6.85;;;12.60;99.90;;;;;;5089731;28;20040;-57
2023/06/06 05:53:46;;;;;;;13.55;6.68;;;12.50;99.90;;;;;;5091701;28;20115;-57
2023/06/06 05:56:13;;;;;;;13.95;6.80;;;12.70;99.90;;;;;;5091377;28;20126;-57
2023/06/06 05:58:40;;;;;;;15.20;5.97;;;12.90;99.90;;;;;;5091420;28;20050;-57
2023/06/06 06:01:05;;;;;;;11.85;5.45;;;13.00;99.90;;;;;;5076068;28;20047;-56
2023/06/06 06:03:33;;;;;;;11.85;5.75;;;12.80;99.90;;;;;;5092275;28;20048;-57
2023/06/06 06:06:04;;;;;;;14.65;5.82;;;12.80;99.90;;;;;;5093557;28;20039;-57
2023/06/06 06:08:31;;;;;;;14.15;6.13;;;12.80;99.90;;;;;;5093702;28;20046;-57
2023/06/06 06:10:57;;;;;;;12.32;5.07;;;13.00;99.90;;;;;;5092109;28;20128;-57
2023/06/06 06:13:22;;;;;;;13.57;5.47;;;13.10;99.90;;;;;;5091897;28;20047;-56
2023/06/06 06:15:48;;;;;;;15.23;5.15;;;13.40;99.90;;;;;;5091583;28;20183;-57
2023/06/06 06:18:14;;;;;;;12.57;4.82;;;14.10;99.90;;;;;;5092150;28;20043;-57
2023/06/06 06:20:40;;;;;;;14.90;5.05;;;14.00;99.90;;;;;;5090168;28;20135;-58
2023/06/06 06:23:06;;;;;;;13.55;5.15;;;14.00;99.90;;;;;;5091064;28;20046;-57
2023/06/06 06:25:31;;;;;;;14.35;4.68;;;13.90;99.90;;;;;;5091653;28;20158;-57
2023/06/06 06:27:58;;;;;;;9.48;4.10;;;14.10;99.90;;;;;;5091818;28;20040;-57
2023/06/06 06:30:23;;;;;;;12.48;4.57;;;13.90;99.90;;;;;;5090788;28;20111;-57
2023/06/06 06:32:49;;;;;;;11.10;3.80;;;14.10;99.90;;;;;;5093108;28;20504;-57
2023/06/06 06:35:15;;;;;;;9.90;3.88;;;14.50;99.90;;;;;;5071648;28;20039;-57
2023/06/06 06:37:41;;;;;;;11.00;3.67;;;14.60;99.90;;;;;;5091234;28;20040;-57
2023/06/06 06:40:09;;;;;;;9.65;4.15;;;14.70;99.90;;;;;;5092858;28;20830;-57
2023/06/06 06:42:44;;;;;;;11.95;4.53;;;14.60;99.90;;;;;;5091635;28;20822;-56
2023/06/06 06:45:12;;;;;;;10.55;4.15;;;14.60;99.90;;;;;;5089457;28;20516;-62
2023/06/06 06:47:38;;;;;;;11.73;4.22;;;14.30;99.90;;;;;;5090780;28;20409;-56
2023/06/06 06:50:05;;;;;;;11.73;4.10;;;14.50;99.90;;;;;;5089595;28;20484;-57
2023/06/06 06:52:35;;;;;;;11.38;4.03;;;15.00;99.90;;;;;;5090016;28;20048;-58
2023/06/06 06:55:04;;;;;;;7.88;3.60;;;15.50;99.90;;;;;;5072691;28;20229;-58
2023/06/06 06:57:30;;;;;;;7.78;3.35;;;15.90;99.90;;;;;;5090694;28;20058;-57
2023/06/06 06:59:56;;;;;;;11.55;4.40;;;16.00;99.90;;;;;;5090831;28;20063;-57
2023/06/06 07:02:29;;;;;;;9.15;4.20;;;15.60;99.90;;;;;;5091721;28;20039;-57
2023/06/06 07:04:59;;;;;;;13.07;4.13;;;16.00;99.90;;;;;;5071866;28;20468;-57
2023/06/06 07:07:25;;;;;;;12.48;4.38;;;16.10;99.90;;;;;;5090217;28;20404;-57
2023/06/06 07:09:51;;;;;;;11.00;3.70;;;16.40;99.90;;;;;;5090911;28;20052;-58
2023/06/06 07:12:17;;;;;;;9.73;3.35;;;16.50;99.90;;;;;;5091530;28;20098;-57
2023/06/06 07:14:43;;;;;;;10.05;3.67;;;16.60;99.90;;;;;;5090312;28;20126;-58
2023/06/06 07:17:09;;;;;;;11.52;3.78;;;17.20;99.90;;;;;;5091733;28;20044;-57
2023/06/06 07:19:35;;;;;;;10.60;4.25;;;17.80;99.90;;;;;;5072476;28;20082;-57
2023/06/06 07:22:03;;;;;;;9.77;3.70;;;18.50;99.90;;;;;;5092976;28;20074;-58
2023/06/06 07:24:29;;;;;;;8.88;3.50;;;19.40;99.90;;;;;;5090098;28;20105;-57
2023/06/06 07:26:55;;;;;;;7.47;3.00;;;20.20;99.90;;;;;;5090921;28;20032;-57
2023/06/06 07:29:21;;;;;;;9.50;3.35;;;20.60;99.90;;;;;;5092348;28;20039;-57
2023/06/06 07:31:47;;;;;;;9.50;3.05;;;20.80;99.90;;;;;;5093307;28;20059;-58
2023/06/06 07:34:13;;;;;;;7.15;3.10;;;21.30;99.90;;;;;;5089622;28;20040;-58
2023/06/06 07:36:39;;;;;;;9.07;3.50;;;21.80;99.90;;;;;;5091464;28;20051;-58
2023/06/06 07:39:04;;;;;;;10.77;3.30;;;21.30;99.90;;;;;;5091142;28;20598;-58
2023/06/06 07:41:31;;;;;;;6.60;3.22;;;21.60;99.90;;;;;;5090168;28;20039;-58
2023/06/06 07:43:58;;;;;;;12.73;4.00;;;20.80;99.90;;;;;;5090003;28;20051;-57
2023/06/06 07:46:24;;;;;;;10.15;3.60;;;20.20;99.90;;;;;;5091547;28;20042;-58
2023/06/06 07:48:51;;;;;;;8.85;3.50;;;22.30;99.90;;;;;;5089792;28;20050;-57
2023/06/06 07:51:17;;;;;;;8.52;4.10;;;19.90;99.90;;;;;;5089818;28;20070;-57
2023/06/06 07:53:46;;;;;;;8.68;3.97;;;19.70;99.90;;;;;;5091011;28;20032;-57
2023/06/06 07:56:17;;;;;;;11.85;4.25;;;20.20;99.90;;;;;;5090388;28;20120;-58
2023/06/06 07:58:51;;;;;;;10.68;3.88;;;20.70;99.90;;;;;;5090901;28;20167;-57
2023/06/06 08:01:19;;;;;;;10.70;4.35;;;20.70;99.90;;;;;;5090622;28;20058;-58
2023/06/06 08:03:49;;;;;;;8.63;4.38;;;21.20;99.90;;;;;;5091709;28;20131;-57
2023/06/06 08:06:17;;;;;;;9.43;4.55;;;20.90;99.90;;;;;;5089634;28;20130;-57
2023/06/06 08:08:43;;;;;;;9.70;4.03;;;21.80;99.90;;;;;;5072036;28;20052;-56
2023/06/06 08:11:09;;;;;;;13.63;4.32;;;22.00;99.90;;;;;;5090533;28;20040;-57
2023/06/06 08:13:35;;;;;;;11.65;4.40;;;22.10;99.90;;;;;;5089375;28;20397;-58
2023/06/06 08:16:01;;;;;;;8.68;3.90;;;21.90;99.90;;;;;;5090209;28;20237;-57
2023/06/06 08:18:26;;;;;;;8.77;4.18;;;22.00;99.90;;;;;;5089489;28;20043;-57
2023/06/06 08:20:52;;;;;;;7.03;3.20;;;22.00;99.90;;;;;;5088821;28;20039;-58
2023/06/06 08:23:18;;;;;;;10.20;3.67;;;22.00;99.90;;;;;;5090246;28;20859;-57
2023/06/06 08:25:44;;;;;;;12.80;4.47;;;22.10;99.90;;;;;;5090742;28;20040;-57
2023/06/06 08:28:09;;;;;;;8.07;3.35;;;21.90;99.90;;;;;;5089882;28;20036;-58
2023/06/06 08:30:35;;;;;;;6.72;3.53;;;21.90;99.90;;;;;;5052590;28;20138;-58
2023/06/06 08:33:01;;;;;;;10.82;4.00;;;21.60;99.90;;;;;;5074793;28;20092;-58
2023/06/06 08:35:26;;;;;;;7.05;3.40;;;21.60;99.90;;;;;;5090009;28;20523;-57
2023/06/06 08:37:53;;;;;;;10.98;3.83;;;21.90;99.90;;;;;;5090308;28;20081;-57
2023/06/06 08:40:19;;;;;;;11.73;3.97;;;21.50;99.90;;;;;;5090629;28;20059;-56
2023/06/06 08:42:50;;;;;;;11.10;3.65;;;21.90;99.90;;;;;;5089492;28;20032;-56
2023/06/06 08:45:20;;;;;;;8.55;4.03;;;21.80;99.90;;;;;;5091396;28;20043;-56
2023/06/06 08:47:47;;;;;;;9.15;4.10;;;22.00;99.90;;;;;;5093807;28;20140;-56
2023/06/06 08:50:14;;;;;;;11.15;4.20;;;22.00;99.90;;;;;;5093144;28;20059;-56
2023/06/06 08:52:42;;;;;;;10.27;4.50;;;22.20;99.90;;;;;;5093542;28;20039;-57
2023/06/06 08:55:08;;;;;;;10.88;5.18;;;21.60;99.90;;;;;;5094449;28;20047;-59
2023/06/06 08:57:41;;;;;;;11.82;4.75;;;21.50;99.90;;;;;;5092995;28;20682;-60
2023/06/06 09:00:11;;;;;;;11.05;4.85;;;21.20;99.90;;;;;;5093224;28;20051;-60
2023/06/06 09:02:41;;;;;;;10.60;5.28;;;21.10;99.90;;;;;;5094761;28;20165;-59
2023/06/06 09:05:13;;;;;;;11.13;4.70;;;21.00;99.90;;;;;;5091839;28;20112;-60
2023/06/06 09:07:40;;;;;;;9.77;4.57;;;20.70;99.90;;;;;;5074862;28;20373;-59
2023/06/06 09:10:06;;;;;;;14.85;5.65;;;20.70;99.90;;;;;;5093156;28;20043;-60
2023/06/06 09:12:42;;;;;;;10.48;4.20;;;20.60;99.90;;;;;;5094032;28;20504;-59
2023/06/06 09:15:10;;;;;;;9.02;4.07;;;20.10;99.90;;;;;;5093163;28;21787;-59
2023/06/06 09:17:36;;;;;;;16.25;4.50;;;20.00;99.90;;;;;;5093679;28;20090;-60
2023/06/06 09:20:10;;;;;;;8.30;4.20;;;19.70;99.90;;;;;;5091553;28;20419;-59
2023/06/06 09:22:47;;;;;;;12.65;4.22;;;19.10;99.90;;;;;;5091375;28;20116;-59
2023/06/06 09:25:26;;;;;;;10.00;4.53;;;18.90;99.90;;;;;;5091699;28;20465;-59
2023/06/06 09:28:02;;;;;;;10.10;4.82;;;18.50;99.90;;;;;;5090414;28;20551;-60
2023/06/06 09:30:30;;;;;;;9.27;4.40;;;18.80;99.90;;;;;;5073334;28;20627;-60
2023/06/06 09:32:58;;;;;;;21.50;5.78;;;18.70;99.90;;;;;;5092888;28;20466;-59
2023/06/06 09:35:29;;;;;;;11.68;4.35;;;18.50;99.90;;;;;;5090256;28;21198;-60
2023/06/06 09:37:55;;;;;;;9.05;4.45;;;18.60;99.90;;;;;;5092005;28;20513;-58
2023/06/06 09:40:21;;;;;;;9.90;4.55;;;18.40;99.90;;;;;;5089860;28;20135;-59
2023/06/06 09:42:48;;;;;;;8.43;3.78;;;17.70;99.90;;;;;;5090671;28;20096;-59
2023/06/06 09:45:16;;;;;;;8.82;4.15;;;18.60;99.90;;;;;;5091781;28;20051;-59
2023/06/06 09:47:46;;;;;;;6.28;4.13;;;18.60;99.90;;;;;;5090815;28;20063;-59
2023/06/06 09:50:13;;;;;;;8.77;4.03;;;18.60;99.90;;;;;;5073837;28;20051;-59
2023/06/06 09:52:40;;;;;;;11.05;4.45;;;18.60;99.90;;;;;;5092357;28;20066;-59
2023/06/06 09:55:16;;;;;;;13.98;5.72;;;18.40;99.90;;;;;;5088727;28;20162;-59
2023/06/06 09:57:47;;;;;;;10.18;5.22;;;18.60;99.90;;;;;;5090561;28;20055;-59
2023/06/06 10:00:14;;;;;;;11.65;5.50;;;18.40;99.90;;;;;;5091261;28;20482;-59
2023/06/06 10:02:43;;;;;;;8.57;4.28;;;18.10;99.90;;;;;;5076637;28;20158;-59
2023/06/06 10:05:11;;;;;;;12.52;5.85;;;18.10;99.90;;;;;;5091426;28;20488;-59
2023/06/06 10:07:45;;;;;;;12.70;5.38;;;18.10;99.90;;;;;;5094266;28;20036;-59
2023/06/06 10:10:16;;;;;;;12.68;5.78;;;18.00;99.90;;;;;;5092470;28;20616;-59
2023/06/06 10:12:43;;;;;;;12.70;5.80;;;18.20;99.90;;;;;;5092477;28;20075;-59
2023/06/06 10:15:11;;;;;;;9.85;5.10;;;18.10;99.90;;;;;;5093427;28;20188;-59
2023/06/06 10:17:38;;;;;;;11.65;4.80;;;18.40;99.90;;;;;;5091159;28;20043;-59
2023/06/06 10:20:09;;;;;;;10.23;5.10;;;18.50;99.90;;;;;;5092540;28;20478;-59
2023/06/06 10:22:36;;;;;;;11.43;5.73;;;18.90;99.90;;;;;;5091489;28;20055;-60
2023/06/06 10:25:03;;;;;;;10.50;5.43;;;18.90;99.90;;;;;;5093332;28;20069;-59
2023/06/06 10:27:40;;;;;;;14.38;6.07;;;18.90;99.90;;;;;;5091161;28;20039;-59
2023/06/06 10:30:13;;;;;;;11.52;6.10;;;18.80;99.90;;;;;;5092672;28;20079;-59
2023/06/06 10:33:05;;;;;;;11.02;5.40;;;18.80;99.90;;;;;;5093095;28;20124;-59
2023/06/06 10:35:31;;;;;;;;;;;19.00;99.90;;;;;;5090455;28;20047;-60
2023/06/06 10:38:08;;;;;;;13.02;5.22;;;18.70;99.90;;;;;;5091325;28;19926;-59
2023/06/06 10:40:54;;;;;;;10.68;5.68;;;19.10;99.90;;;;;;5091968;28;20039;-60
2023/06/06 10:43:41;;;;;;;13.85;5.80;;;19.10;99.90;;;;;;5090124;28;20070;-58
2023/06/06 10:46:07;;;;;;;9.57;4.65;;;18.90;99.90;;;;;;5090334;28;20134;-59
2023/06/06 10:48:43;;;;;;;13.43;5.22;;;19.10;99.90;;;;;;5088748;28;20581;-60
2023/06/06 10:51:39;;;;;;;13.27;4.68;;;21.10;99.90;;;;;;5090378;28;20032;-59
2023/06/06 10:54:21;;;;;;;9.52;5.45;;;18.90;99.90;;;;;;5091043;28;20080;-60
2023/06/06 10:56:51;;;;;;;14.82;5.90;;;19.20;99.90;;;;;;5088864;28;20035;-59
2023/06/06 10:59:20;;;;;;;14.00;6.00;;;19.40;99.90;;;;;;5090761;28;21994;-59
2023/06/06 11:01:45;;;;;;;13.00;6.50;;;19.50;99.90;;;;;;5089950;28;20039;-59
2023/06/06 11:04:19;;;;;;;10.60;6.22;;;19.00;99.90;;;;;;5090083;28;20040;-59
2023/06/06 11:06:50;;;;;;;14.88;6.57;;;19.10;99.90;;;;;;5089171;28;20040;-59
2023/06/06 11:09:22;;;;;;;15.97;7.37;;;19.10;99.90;;;;;;5090907;28;20044;-59
2023/06/06 11:11:49;;;;;;;10.27;5.78;;;19.30;99.90;;;;;;5090641;28;20086;-59
2023/06/06 11:14:20;;;;;;;10.68;5.60;;;19.40;99.90;;;;;;5090309;28;20035;-59
2023/06/06 11:16:45;;;;;;;11.02;6.25;;;19.40;99.90;;;;;;5089607;28;20198;-59
2023/06/06 11:19:15;;;;;;;15.25;5.18;;;18.70;99.90;;;;;;5091123;28;20538;-58
2023/06/06 11:21:43;;;;;;;11.27;5.15;;;19.10;99.90;;;;;;5091198;28;20044;-58
2023/06/06 11:24:10;;;;;;;10.55;5.18;;;19.10;99.90;;;;;;5054200;28;20176;-59
2023/06/06 11:26:37;;;;;;;16.63;5.28;;;18.80;99.90;;;;;;5090841;28;20081;-59
2023/06/06 11:29:04;;;;;;;11.35;5.00;;;19.10;99.90;;;;;;5071302;28;20185;-58
2023/06/06 11:31:32;;;;;;;10.30;4.75;;;19.10;99.90;;;;;;5090591;28;20075;-59
2023/06/06 11:34:06;;;;;;;11.68;5.20;;;19.30;99.90;;;;;;5090921;28;20044;-58
2023/06/06 11:36:33;;;;;;;12.30;4.68;;;19.30;99.90;;;;;;5071178;28;20039;-59
2023/06/06 11:39:07;;;;;;;11.00;4.97;;;19.20;99.90;;;;;;5090407;28;20051;-59
2023/06/06 11:41:51;;;;;;;13.30;5.35;;;19.20;99.90;;;;;;5090316;28;20113;-59
2023/06/06 11:44:17;;;;;;;10.88;4.75;;;19.50;99.90;;;;;;5071101;28;20606;-58
2023/06/06 11:46:48;;;;;;;10.02;5.07;;;19.50;99.90;;;;;;5088741;28;20547;-58
2023/06/06 11:49:14;;;;;;;14.70;6.18;;;19.20;99.90;;;;;;5089567;28;20065;-59
2023/06/06 11:51:41;;;;;;;11.88;5.57;;;19.20;99.90;;;;;;5055554;28;20116;-59
2023/06/06 11:54:11;;;;;;;14.57;7.03;;;19.30;99.90;;;;;;5090157;28;20136;-59
2023/06/06 11:56:37;;;;;;;15.27;6.05;;;19.00;99.90;;;;;;5088913;28;20055;-59
2023/06/06 11:59:03;;;;;;;15.98;6.50;;;19.10;99.90;;;;;;5088983;28;20330;-59
2023/06/06 12:01:29;;;;;;;10.93;5.35;;;19.10;99.90;;;;;;5089024;28;20512;-59
2023/06/06 12:03:54;;;;;;;13.75;6.00;;;19.20;99.90;;;;;;5054133;28;20036;-58
2023/06/06 12:06:22;;;;;;;13.38;6.32;;;19.40;99.90;;;;;;5088580;28;20052;-57
2023/06/06 12:08:49;;;;;;;13.27;6.22;;;19.30;99.90;;;;;;5088867;28;20642;-57
2023/06/06 12:11:21;;;;;;;13.43;5.35;;;19.20;99.90;;;;;;5071371;28;20052;-58
2023/06/06 12:13:47;;;;;;;11.70;5.18;;;19.10;99.90;;;;;;5088358;28;20055;-57
2023/06/06 12:16:22;;;;;;;11.38;5.25;;;19.00;99.90;;;;;;5089949;28;20047;-56
2023/06/06 12:18:49;;;;;;;11.00;4.65;;;18.90;99.90;;;;;;5089108;28;20051;-58
2023/06/06 12:21:18;;;;;;;12.90;5.53;;;18.70;99.90;;;;;;5075846;28;20583;-56
2023/06/06 12:23:44;;;;;;;12.63;4.90;;;18.80;99.90;;;;;;5057426;28;20115;-57
2023/06/06 12:26:18;;;;;;;12.68;5.70;;;18.90;99.90;;;;;;5093543;28;20484;-57
2023/06/06 12:28:58;;;;;;;11.68;4.50;;;18.80;99.90;;;;;;5093963;28;20500;-56
2023/06/06 12:31:25;;;;;;;12.35;5.20;;;19.10;99.90;;;;;;5093801;28;20039;-57
2023/06/06 12:33:53;;;;;;;9.88;5.03;;;18.70;99.90;;;;;;5094005;28;20516;-57
2023/06/06 12:36:25;;;;;;;16.65;5.82;;;18.90;99.90;;;;;;5094149;28;20047;-57
2023/06/06 12:38:53;;;;;;;;;;;19.00;99.90;;;;;;5093492;28;20095;-57
2023/06/06 12:41:19;;;;;;;13.15;4.97;;;18.80;99.90;;;;;;5093726;28;20477;-56
2023/06/06 12:43:45;;;;;;;14.93;5.32;;;16.90;99.90;;;;;;5094415;28;20055;-57
2023/06/06 12:46:11;;;;;;;14.48;5.63;;;18.70;99.90;;;;;;5094331;28;20047;-57
2023/06/06 12:48:37;;;;;;;7.95;4.35;;;18.60;99.90;;;;;;5093145;28;20083;-57